Time;durP1;ratioP1;P1;durP2;ratioP2;P2;SDS_P1;SDS_P2;PMS_P1;PMS_P2;Temp;Humidity;BMP_temperature;BMP_pressure;BME280_temperature;BME280_humidity;BME280_pressure;Samples;Min_cycle;Max_cycle;Signal;HPM_P1;HPM_P2
2023/08/02 00:01:47;;;;;;;3.20;1.80;;;;;;;;;;5147052;28;21027;-79
2023/08/02 00:04:15;;;;;;;5.30;2.37;;;;;;;;;;5146107;28;20861;-80
2023/08/02 00:06:42;;;;;;;5.33;1.87;;;;;;;;;;5147159;28;20713;-79
2023/08/02 00:09:10;;;;;;;6.00;2.17;;;;;;;;;;5146850;28;20435;-80
2023/08/02 00:11:37;;;;;;;3.50;1.50;;;;;;;;;;5146989;28;20489;-80
2023/08/02 00:14:06;;;;;;;3.93;1.90;;;;;;;;;;5147169;28;20458;-79
2023/08/02 00:16:34;;;;;;;4.37;1.43;;;;;;;;;;5148236;27;20458;-77
2023/08/02 00:19:02;;;;;;;5.60;1.83;;;;;;;;;;5148482;28;20503;-79
2023/08/02 00:21:30;;;;;;;4.77;2.00;;;;;;;;;;5147830;27;20546;-81
2023/08/02 00:23:57;;;;;;;3.10;1.53;;;;;;;;;;5144555;28;20454;-79
2023/08/02 00:26:25;;;;;;;2.90;1.93;;;;;;;;;;5145625;28;20493;-80
2023/08/02 00:28:52;;;;;;;2.80;1.97;;;;;;;;;;5145553;27;20518;-81
2023/08/02 00:31:21;;;;;;;4.63;1.80;;;;;;;;;;5143268;28;20457;-80
2023/08/02 00:33:48;;;;;;;4.10;1.90;;;;;;;;;;5142964;28;20456;-80
2023/08/02 00:36:16;;;;;;;4.87;1.70;;;;;;;;;;5144573;28;20466;-79
2023/08/02 00:38:44;;;;;;;2.77;1.60;;;;;;;;;;5144580;28;20485;-80
2023/08/02 00:41:11;;;;;;;5.60;2.00;;;;;;;;;;5147071;28;20465;-77
2023/08/02 00:43:40;;;;;;;3.43;1.63;;;;;;;;;;5153183;27;20484;-80
2023/08/02 00:46:07;;;;;;;2.20;1.40;;;;;;;;;;5151558;27;20537;-79
2023/08/02 00:48:37;;;;;;;3.87;2.10;;;;;;;;;;5151465;27;20442;-79
2023/08/02 00:51:05;;;;;;;4.10;2.17;;;;;;;;;;5149725;27;20457;-79
2023/08/02 00:53:32;;;;;;;4.70;2.00;;;;;;;;;;5147122;27;20462;-80
2023/08/02 00:56:00;;;;;;;5.07;1.90;;;;;;;;;;5147432;27;20540;-79
2023/08/02 00:58:27;;;;;;;5.90;1.90;;;;;;;;;;5145740;27;20504;-81
2023/08/02 01:00:54;;;;;;;3.90;3.13;;;;;;;;;;5146456;27;20464;-79
2023/08/02 01:03:22;;;;;;;5.40;2.20;;;;;;;;;;5146775;27;20791;-79
2023/08/02 01:05:56;;;;;;;2.80;1.70;;;;;;;;;;5147983;27;20438;-81
2023/08/02 01:08:25;;;;;;;4.20;1.90;;;;;;;;;;5144405;27;21024;-77
2023/08/02 01:10:57;;;;;;;8.70;2.27;;;;;;;;;;5147212;27;20904;-80
2023/08/02 01:13:25;;;;;;;3.60;1.77;;;;;;;;;;5144662;27;20466;-79
2023/08/02 01:15:53;;;;;;;5.93;2.30;;;;;;;;;;5146479;27;20518;-80
2023/08/02 01:18:21;;;;;;;5.87;1.97;;;;;;;;;;5145353;27;20873;-79
2023/08/02 01:20:50;;;;;;;6.33;2.37;;;;;;;;;;5147647;27;20478;-79
2023/08/02 01:23:17;;;;;;;5.00;2.00;;;;;;;;;;5148992;27;20477;-79
2023/08/02 01:25:45;;;;;;;4.70;1.90;;;;;;;;;;5149342;27;20472;-78
2023/08/02 01:28:17;;;;;;;3.80;2.00;;;;;;;;;;5149190;27;20628;-78
2023/08/02 01:30:46;;;;;;;4.20;2.30;;;;;;;;;;5148047;27;20453;-78
2023/08/02 01:33:15;;;;;;;4.87;1.60;;;;;;;;;;5149219;27;20449;-80
2023/08/02 01:35:42;;;;;;;7.87;3.30;;;;;;;;;;5150967;27;20464;-81
2023/08/02 01:38:11;;;;;;;4.13;1.90;;;;;;;;;;5151093;27;20458;-80
2023/08/02 01:40:39;;;;;;;4.30;2.40;;;;;;;;;;5149080;27;20454;-80
2023/08/02 01:43:06;;;;;;;5.10;2.30;;;;;;;;;;5150292;27;20454;-79
2023/08/02 01:45:34;;;;;;;3.87;2.20;;;;;;;;;;5150014;27;20450;-78
2023/08/02 01:48:02;;;;;;;4.33;1.70;;;;;;;;;;5148509;27;20484;-79
2023/08/02 01:50:30;;;;;;;3.43;1.80;;;;;;;;;;5148819;27;20445;-80
2023/08/02 01:52:57;;;;;;;6.90;2.47;;;;;;;;;;5151353;27;20438;-78
2023/08/02 01:55:27;;;;;;;7.20;2.20;;;;;;;;;;5149880;27;20442;-79
2023/08/02 01:57:54;;;;;;;4.70;2.13;;;;;;;;;;5150072;27;20458;-80
2023/08/02 02:00:21;;;;;;;3.63;3.30;;;;;;;;;;5153753;27;20478;-78
2023/08/02 02:02:49;;;;;;;4.27;2.13;;;;;;;;;;5149395;27;20446;-79
2023/08/02 02:05:16;;;;;;;2.60;1.57;;;;;;;;;;5152529;27;20483;-80
2023/08/02 02:07:44;;;;;;;9.37;2.10;;;;;;;;;;5151002;27;20481;-79
2023/08/02 02:10:14;;;;;;;4.60;2.10;;;;;;;;;;5149417;27;20453;-79
2023/08/02 02:12:43;;;;;;;7.30;2.27;;;;;;;;;;5149842;27;20555;-78
2023/08/02 02:15:10;;;;;;;2.90;2.00;;;;;;;;;;5147518;27;20540;-79
2023/08/02 02:17:38;;;;;;;3.90;2.10;;;;;;;;;;5149900;27;20490;-79
2023/08/02 02:20:09;;;;;;;5.17;2.07;;;;;;;;;;5147682;27;20490;-80
2023/08/02 02:22:36;;;;;;;8.67;2.43;;;;;;;;;;5148830;27;20470;-80
2023/08/02 02:25:04;;;;;;;2.47;1.40;;;;;;;;;;5152005;27;20446;-80
2023/08/02 02:27:31;;;;;;;4.30;1.60;;;;;;;;;;5151209;27;20441;-80
2023/08/02 02:30:06;;;;;;;3.27;1.97;;;;;;;;;;5151150;27;20805;-80
2023/08/02 02:32:34;;;;;;;7.10;1.93;;;;;;;;;;5145720;27;20481;-80
2023/08/02 02:35:07;;;;;;;7.60;2.03;;;;;;;;;;5147514;27;20483;-79
2023/08/02 02:37:35;;;;;;;2.50;1.60;;;;;;;;;;5146303;27;20477;-80
2023/08/02 02:40:17;;;;;;;2.73;1.70;;;;;;;;;;5147635;27;20485;-80
2023/08/02 02:42:58;;;;;;;6.53;2.00;;;;;;;;;;5155020;27;20535;-79
2023/08/02 02:45:34;;;;;;;3.43;2.17;;;;;;;;;;5151437;27;20454;-79
2023/08/02 02:50:55;;;;;;;3.20;1.80;;;;;;;;;;5133170;27;20454;-80
2023/08/02 02:53:23;;;;;;;4.40;1.73;;;;;;;;;;5151272;27;20450;-79
2023/08/02 02:55:52;;;;;;;6.70;2.37;;;;;;;;;;5152163;27;20461;-77
2023/08/02 02:58:20;;;;;;;10.13;1.97;;;;;;;;;;5152851;27;20446;-79
2023/08/02 03:00:49;;;;;;;4.00;2.00;;;;;;;;;;5152136;27;20486;-81
2023/08/02 03:03:26;;;;;;;3.50;1.83;;;;;;;;;;5153900;27;20726;-80
2023/08/02 03:05:55;;;;;;;4.03;2.20;;;;;;;;;;5152390;27;20454;-81
2023/08/02 03:08:23;;;;;;;7.90;2.43;;;;;;;;;;5151388;27;20468;-80
2023/08/02 03:10:51;;;;;;;7.50;2.80;;;;;;;;;;5149840;27;20450;-82
2023/08/02 03:13:19;;;;;;;6.70;2.10;;;;;;;;;;5148304;27;20549;-79
2023/08/02 03:15:52;;;;;;;5.93;2.10;;;;;;;;;;5140768;27;20475;-80
2023/08/02 03:18:20;;;;;;;5.83;1.93;;;;;;;;;;5150415;27;20458;-79
2023/08/02 03:20:48;;;;;;;6.30;1.90;;;;;;;;;;5141325;27;20482;-81
2023/08/02 03:23:16;;;;;;;7.73;2.20;;;;;;;;;;5146713;27;20546;-80
2023/08/02 03:25:43;;;;;;;4.80;2.30;;;;;;;;;;5150940;27;20442;-79
2023/08/02 03:28:17;;;;;;;3.60;2.23;;;;;;;;;;5151886;27;20445;-80
2023/08/02 03:30:45;;;;;;;4.77;2.53;;;;;;;;;;5152652;27;20542;-80
2023/08/02 03:33:15;;;;;;;4.00;2.10;;;;;;;;;;5150943;27;20445;-80
2023/08/02 03:35:45;;;;;;;8.67;2.00;;;;;;;;;;5148934;27;20559;-81
2023/08/02 03:38:14;;;;;;;6.60;2.77;;;;;;;;;;5147725;27;20450;-80
2023/08/02 03:40:41;;;;;;;9.50;2.50;;;;;;;;;;5148704;28;20490;-79
2023/08/02 03:43:14;;;;;;;7.43;2.70;;;;;;;;;;5150920;28;20442;-78
2023/08/02 03:45:42;;;;;;;3.97;2.20;;;;;;;;;;5148401;28;20549;-80
2023/08/02 03:48:10;;;;;;;5.60;2.17;;;;;;;;;;5148440;28;20521;-80
2023/08/02 03:50:40;;;;;;;5.73;2.30;;;;;;;;;;5149703;28;20450;-78
2023/08/02 03:53:08;;;;;;;6.43;2.23;;;;;;;;;;5151303;28;20449;-79
2023/08/02 03:55:35;;;;;;;5.50;2.63;;;;;;;;;;5149017;28;20442;-80
2023/08/02 03:58:03;;;;;;;3.17;1.97;;;;;;;;;;5152031;28;20441;-78
2023/08/02 04:00:31;;;;;;;5.33;1.70;;;;;;;;;;5150610;28;20519;-82
2023/08/02 04:02:59;;;;;;;4.57;2.37;;;;;;;;;;5147598;28;20462;-79
2023/08/02 04:05:27;;;;;;;6.33;2.53;;;;;;;;;;5149108;28;20544;-80
2023/08/02 04:07:56;;;;;;;4.70;2.40;;;;;;;;;;5145637;28;20446;-79
2023/08/02 04:10:24;;;;;;;7.10;1.90;;;;;;;;;;5147536;28;20446;-79
2023/08/02 04:12:52;;;;;;;8.00;4.20;;;;;;;;;;5146402;27;20532;-80
2023/08/02 04:15:20;;;;;;;7.10;2.30;;;;;;;;;;5146248;28;20532;-81
2023/08/02 04:17:49;;;;;;;6.03;1.97;;;;;;;;;;5146481;27;20450;-82
2023/08/02 04:20:17;;;;;;;3.90;2.20;;;;;;;;;;5151597;27;20492;-80
2023/08/02 04:22:49;;;;;;;7.17;2.30;;;;;;;;;;5155341;27;20489;-78
2023/08/02 04:25:19;;;;;;;5.13;2.10;;;;;;;;;;5155890;27;20458;-80
2023/08/02 04:27:55;;;;;;;5.37;2.33;;;;;;;;;;5155154;27;20466;-81
2023/08/02 04:30:26;;;;;;;5.53;2.50;;;;;;;;;;5154976;27;20453;-80
2023/08/02 04:32:55;;;;;;;10.30;2.70;;;;;;;;;;5150334;27;20437;-80
2023/08/02 04:35:23;;;;;;;4.93;2.23;;;;;;;;;;5149575;27;20572;-81
2023/08/02 04:37:51;;;;;;;7.83;2.67;;;;;;;;;;5152259;27;20433;-81
2023/08/02 04:40:21;;;;;;;5.60;2.50;;;;;;;;;;5151239;27;20474;-80
2023/08/02 04:42:53;;;;;;;10.30;3.20;;;;;;;;;;5149650;27;20452;-82
2023/08/02 04:45:21;;;;;;;4.60;2.30;;;;;;;;;;5150786;27;20511;-81
2023/08/02 04:47:49;;;;;;;6.27;2.10;;;;;;;;;;5151253;27;20460;-81
2023/08/02 04:50:20;;;;;;;5.20;2.07;;;;;;;;;;5154254;27;20442;-80
2023/08/02 04:52:51;;;;;;;5.67;2.07;;;;;;;;;;5143764;27;20438;-82
2023/08/02 04:55:21;;;;;;;4.47;2.23;;;;;;;;;;5148536;27;20458;-80
2023/08/02 04:57:52;;;;;;;6.87;2.00;;;;;;;;;;5149681;27;20454;-79
2023/08/02 05:00:20;;;;;;;4.93;2.03;;;;;;;;;;5152007;27;20485;-79
2023/08/02 05:05:33;;;;;;;7.37;2.63;;;;;;;;;;5144689;27;20447;-81
2023/08/02 05:08:04;;;;;;;8.83;2.17;;;;;;;;;;5155159;27;20468;-79
2023/08/02 05:10:32;;;;;;;7.73;2.07;;;;;;;;;;5153930;27;20430;-79
2023/08/02 05:13:04;;;;;;;4.20;1.60;;;;;;;;;;5153748;27;20448;-80
2023/08/02 05:15:39;;;;;;;4.63;2.07;;;;;;;;;;5153451;27;20487;-80
2023/08/02 05:18:09;;;;;;;8.10;2.17;;;;;;;;;;5153863;27;20437;-80
2023/08/02 05:20:37;;;;;;;8.50;2.33;;;;;;;;;;5154374;27;20473;-80
2023/08/02 05:23:07;;;;;;;6.90;2.67;;;;;;;;;;5151321;27;20517;-80
2023/08/02 05:25:36;;;;;;;4.83;2.20;;;;;;;;;;5152726;27;20457;-79
2023/08/02 05:28:09;;;;;;;7.50;2.20;;;;;;;;;;5154046;27;20981;-82
2023/08/02 05:30:44;;;;;;;6.10;2.20;;;;;;;;;;5154333;27;20501;-79
2023/08/02 05:33:14;;;;;;;4.63;2.13;;;;;;;;;;5154164;27;20482;-81
2023/08/02 05:35:41;;;;;;;5.53;2.33;;;;;;;;;;5153164;27;20457;-81
2023/08/02 05:38:10;;;;;;;7.10;2.83;;;;;;;;;;5152645;27;20433;-82
2023/08/02 05:40:38;;;;;;;13.73;2.77;;;;;;;;;;5151559;27;20533;-79
2023/08/02 05:43:08;;;;;;;4.57;2.10;;;;;;;;;;5152391;27;20453;-79
2023/08/02 05:45:35;;;;;;;4.00;1.60;;;;;;;;;;5153099;27;20422;-81
2023/08/02 05:48:04;;;;;;;5.17;2.00;;;;;;;;;;5149069;27;20450;-79
2023/08/02 05:50:33;;;;;;;4.87;1.60;;;;;;;;;;5149622;27;20717;-80
2023/08/02 05:53:01;;;;;;;6.83;2.13;;;;;;;;;;5151522;27;20446;-80
2023/08/02 05:55:37;;;;;;;5.73;1.90;;;;;;;;;;5148804;27;20454;-80
2023/08/02 05:58:05;;;;;;;9.30;2.10;;;;;;;;;;5149661;27;20483;-80
2023/08/02 06:00:34;;;;;;;5.43;1.80;;;;;;;;;;5148604;27;20478;-79
2023/08/02 06:03:03;;;;;;;4.10;2.13;;;;;;;;;;5149981;27;20446;-79
2023/08/02 06:05:48;;;;;;;4.77;2.13;;;;;;;;;;5152443;27;20458;-81
2023/08/02 06:08:16;;;;;;;5.43;1.90;;;;;;;;;;5151378;27;20454;-80
2023/08/02 06:10:46;;;;;;;6.73;2.50;;;;;;;;;;5152324;27;20465;-81
2023/08/02 06:13:14;;;;;;;5.57;2.40;;;;;;;;;;5152490;27;20940;-80
2023/08/02 06:15:44;;;;;;;7.50;2.73;;;;;;;;;;5148921;27;20433;-81
2023/08/02 06:18:11;;;;;;;5.47;1.83;;;;;;;;;;5145605;27;20476;-80
2023/08/02 06:20:39;;;;;;;5.53;3.10;;;;;;;;;;5146202;27;20492;-79
2023/08/02 06:23:06;;;;;;;7.10;2.40;;;;;;;;;;5142148;27;20480;-79
2023/08/02 06:25:34;;;;;;;6.13;3.10;;;;;;;;;;5139259;27;20482;-79
2023/08/02 06:28:02;;;;;;;3.90;2.20;;;;;;;;;;5142443;27;20873;-78
2023/08/02 06:30:31;;;;;;;5.33;3.13;;;;;;;;;;5138154;27;20446;-78
2023/08/02 06:33:04;;;;;;;5.87;2.60;;;;;;;;;;5139938;27;20445;-79
2023/08/02 06:35:36;;;;;;;4.40;1.80;;;;;;;;;;5143187;27;20464;-79
2023/08/02 06:38:04;;;;;;;7.00;2.47;;;;;;;;;;5143051;27;20442;-81
2023/08/02 06:40:32;;;;;;;8.77;3.07;;;;;;;;;;5147079;27;20530;-77
2023/08/02 06:43:00;;;;;;;6.73;2.60;;;;;;;;;;5146902;27;20457;-79
2023/08/02 06:45:27;;;;;;;4.77;2.70;;;;;;;;;;5144773;27;20586;-78
2023/08/02 06:47:55;;;;;;;6.63;2.20;;;;;;;;;;5136950;27;20461;-78
2023/08/02 06:50:23;;;;;;;4.73;2.10;;;;;;;;;;5139009;27;20438;-81
2023/08/02 06:52:51;;;;;;;10.03;3.67;;;;;;;;;;5140207;27;20640;-78
2023/08/02 06:55:19;;;;;;;7.00;2.60;;;;;;;;;;5142149;27;20789;-78
2023/08/02 06:57:46;;;;;;;4.07;2.43;;;;;;;;;;5137024;27;20450;-80
2023/08/02 07:00:18;;;;;;;3.60;2.00;;;;;;;;;;5141523;27;20477;-79
2023/08/02 07:02:46;;;;;;;7.90;2.90;;;;;;;;;;5144613;27;20434;-79
2023/08/02 07:05:15;;;;;;;6.40;2.50;;;;;;;;;;5140157;27;20473;-81
2023/08/02 07:07:44;;;;;;;3.13;2.13;;;;;;;;;;5143071;27;20446;-78
2023/08/02 07:10:12;;;;;;;9.97;3.23;;;;;;;;;;5143404;27;20702;-81
2023/08/02 07:12:39;;;;;;;7.57;2.97;;;;;;;;;;5143098;27;20676;-78
2023/08/02 07:15:10;;;;;;;6.03;2.93;;;;;;;;;;5140631;27;20446;-78
2023/08/02 07:17:37;;;;;;;6.93;3.27;;;;;;;;;;5140370;27;20449;-78
2023/08/02 07:20:09;;;;;;;8.53;3.10;;;;;;;;;;5143312;27;20450;-78
2023/08/02 07:22:39;;;;;;;6.90;2.17;;;;;;;;;;5131852;27;20490;-79
2023/08/02 07:25:09;;;;;;;6.27;4.03;;;;;;;;;;5138319;27;20473;-80
2023/08/02 07:27:39;;;;;;;13.27;3.57;;;;;;;;;;5135710;27;21082;-78
2023/08/02 07:30:09;;;;;;;6.43;2.10;;;;;;;;;;5137012;27;20495;-79
2023/08/02 07:32:37;;;;;;;10.47;2.33;;;;;;;;;;5139187;27;20453;-80
2023/08/02 07:35:06;;;;;;;9.27;2.70;;;;;;;;;;5143045;27;20906;-79
2023/08/02 07:37:34;;;;;;;6.47;2.47;;;;;;;;;;5142540;27;20511;-81
2023/08/02 07:40:06;;;;;;;6.60;2.60;;;;;;;;;;5143557;28;20530;-79
2023/08/02 07:42:35;;;;;;;8.03;3.20;;;;;;;;;;5142102;28;20471;-78
2023/08/02 07:45:09;;;;;;;10.93;3.50;;;;;;;;;;5137439;28;21023;-79
2023/08/02 07:47:39;;;;;;;4.70;2.40;;;;;;;;;;5141223;28;20452;-79
2023/08/02 07:50:10;;;;;;;6.40;3.07;;;;;;;;;;5140992;28;20443;-79
2023/08/02 07:52:38;;;;;;;10.37;3.00;;;;;;;;;;5128150;27;20454;-79
2023/08/02 07:55:08;;;;;;;9.23;2.80;;;;;;;;;;5127783;27;20490;-80
2023/08/02 07:57:38;;;;;;;5.30;2.27;;;;;;;;;;5141049;27;20442;-81
2023/08/02 08:00:10;;;;;;;5.77;3.13;;;;;;;;;;5126219;27;20446;-80
2023/08/02 08:02:38;;;;;;;7.03;3.00;;;;;;;;;;5129309;28;20450;-78
2023/08/02 08:05:06;;;;;;;9.43;3.37;;;;;;;;;;5127602;28;20439;-78
2023/08/02 08:07:34;;;;;;;11.20;3.47;;;;;;;;;;5124588;28;20451;-78
2023/08/02 08:10:06;;;;;;;8.10;3.10;;;;;;;;;;5127361;28;20457;-78
2023/08/02 08:12:33;;;;;;;5.43;3.13;;;;;;;;;;5126780;27;20571;-80
2023/08/02 08:15:03;;;;;;;7.20;2.70;;;;;;;;;;5128542;28;20444;-78
2023/08/02 08:17:30;;;;;;;9.07;3.80;;;;;;;;;;5127735;28;20442;-82
2023/08/02 08:19:58;;;;;;;8.33;2.63;;;;;;;;;;5128664;28;20474;-79
2023/08/02 08:22:28;;;;;;;12.70;3.57;;;;;;;;;;5148424;27;20511;-80
2023/08/02 08:24:56;;;;;;;9.00;2.70;;;;;;;;;;5162993;27;20743;-80
2023/08/02 08:27:24;;;;;;;8.00;2.97;;;;;;;;;;5139379;27;20454;-80
2023/08/02 08:29:51;;;;;;;7.50;3.43;;;;;;;;;;5140183;27;20478;-79
2023/08/02 08:32:26;;;;;;;6.70;2.47;;;;;;;;;;5125433;28;20466;-79
2023/08/02 08:34:57;;;;;;;9.57;4.30;;;;;;;;;;5132687;27;20449;-78
2023/08/02 08:37:26;;;;;;;8.27;2.70;;;;;;;;;;5129591;28;20459;-81
2023/08/02 08:39:55;;;;;;;5.50;2.87;;;;;;;;;;5127272;28;20477;-80
2023/08/02 08:42:23;;;;;;;8.57;3.43;;;;;;;;;;5106622;28;20541;-78
2023/08/02 08:44:51;;;;;;;5.53;2.50;;;;;;;;;;5115128;28;20451;-79
2023/08/02 08:47:19;;;;;;;9.70;3.60;;;;;;;;;;5114823;28;20451;-79
2023/08/02 08:49:48;;;;;;;12.63;4.10;;;;;;;;;;5131025;27;20449;-78
2023/08/02 08:52:17;;;;;;;6.40;2.43;;;;;;;;;;5143130;27;20458;-79
2023/08/02 08:54:45;;;;;;;5.97;3.87;;;;;;;;;;5134748;27;20937;-78
2023/08/02 08:57:14;;;;;;;6.03;2.77;;;;;;;;;;5144515;27;20545;-80
2023/08/02 08:59:42;;;;;;;6.90;3.40;;;;;;;;;;5145360;27;20510;-79
2023/08/02 09:02:12;;;;;;;7.80;2.40;;;;;;;;;;5137220;27;21101;-79
2023/08/02 09:04:40;;;;;;;6.03;3.00;;;;;;;;;;5132438;27;20614;-80
2023/08/02 09:07:11;;;;;;;7.50;2.93;;;;;;;;;;5133835;27;20450;-79
2023/08/02 09:09:39;;;;;;;8.80;3.13;;;;;;;;;;5143512;27;20453;-78
2023/08/02 09:12:10;;;;;;;6.30;2.20;;;;;;;;;;5137600;27;20457;-78
2023/08/02 09:20:18;;;;;;;8.43;2.70;;;;;;;;;;5141426;27;20481;-80
2023/08/02 09:22:50;;;;;;;7.20;3.20;;;;;;;;;;5142402;27;20254;-79
2023/08/02 09:25:25;;;;;;;5.90;2.83;;;;;;;;;;5140248;27;20514;-79
2023/08/02 09:27:53;;;;;;;5.73;2.37;;;;;;;;;;5142774;27;20753;-79
2023/08/02 09:30:32;;;;;;;7.30;3.20;;;;;;;;;;5142553;27;20442;-79
2023/08/02 09:33:05;;;;;;;6.40;4.00;;;;;;;;;;5145696;27;20433;-80
2023/08/02 09:35:34;;;;;;;5.90;3.00;;;;;;;;;;5145659;27;20466;-77
2023/08/02 09:38:12;;;;;;;10.33;4.80;;;;;;;;;;5148260;27;20521;-78
2023/08/02 09:40:40;;;;;;;7.70;2.73;;;;;;;;;;5143261;27;20484;-78
2023/08/02 09:43:10;;;;;;;6.30;3.07;;;;;;;;;;5143805;27;20442;-80
2023/08/02 09:45:38;;;;;;;5.73;3.30;;;;;;;;;;5139819;27;20477;-79
2023/08/02 09:48:06;;;;;;;8.87;3.37;;;;;;;;;;5146889;27;20430;-78
2023/08/02 09:50:33;;;;;;;10.23;3.67;;;;;;;;;;5139104;27;20465;-79
2023/08/02 09:53:15;;;;;;;6.70;3.70;;;;;;;;;;5137780;27;20449;-79
2023/08/02 09:55:44;;;;;;;23.20;14.00;;;;;;;;;;5140277;27;20456;-80
2023/08/02 09:58:13;;;;;;;6.00;2.60;;;;;;;;;;5139984;27;20441;-79
2023/08/02 10:00:41;;;;;;;11.80;3.17;;;;;;;;;;5143084;27;20469;-80
2023/08/02 10:03:09;;;;;;;7.87;2.83;;;;;;;;;;5139890;27;20474;-79
2023/08/02 10:05:44;;;;;;;15.70;4.30;;;;;;;;;;5140262;27;20454;-80
2023/08/02 10:08:14;;;;;;;10.50;4.57;;;;;;;;;;5138402;27;20484;-79
2023/08/02 10:10:44;;;;;;;11.57;5.00;;;;;;;;;;5139972;27;20789;-78
2023/08/02 10:13:14;;;;;;;9.50;4.10;;;;;;;;;;5133181;27;20477;-81
2023/08/02 10:15:43;;;;;;;4.50;2.07;;;;;;;;;;5139993;27;20458;-78
2023/08/02 10:18:12;;;;;;;9.50;3.60;;;;;;;;;;5130080;27;20454;-79
2023/08/02 10:20:41;;;;;;;4.83;2.20;;;;;;;;;;5146756;27;20574;-79
2023/08/02 10:23:10;;;;;;;10.00;4.03;;;;;;;;;;5144088;27;20897;-79
2023/08/02 10:25:39;;;;;;;8.70;3.67;;;;;;;;;;5143532;27;20450;-79
2023/08/02 10:28:07;;;;;;;4.60;2.23;;;;;;;;;;5142431;27;20766;-79
2023/08/02 10:30:36;;;;;;;5.03;2.47;;;;;;;;;;5142977;27;20858;-80
2023/08/02 10:33:14;;;;;;;7.40;3.20;;;;;;;;;;5134103;27;20447;-80
2023/08/02 10:35:58;;;;;;;6.40;3.50;;;;;;;;;;5139867;27;20465;-80
2023/08/02 10:38:29;;;;;;;8.90;6.27;;;;;;;;;;5134486;27;20450;-80
2023/08/02 10:41:06;;;;;;;6.43;3.80;;;;;;;;;;5145019;27;20448;-79
2023/08/02 10:43:34;;;;;;;9.73;6.87;;;;;;;;;;5138288;27;20464;-79
2023/08/02 10:46:22;;;;;;;17.27;9.20;;;;;;;;;;5136472;27;20789;-78
2023/08/02 10:48:50;;;;;;;8.83;4.47;;;;;;;;;;5133049;27;20466;-78
2023/08/02 10:51:31;;;;;;;8.40;4.30;;;;;;;;;;5138956;27;20438;-82
2023/08/02 10:54:19;;;;;;;9.53;3.77;;;;;;;;;;5131025;27;20483;-79
2023/08/02 10:57:06;;;;;;;8.47;3.70;;;;;;;;;;5144080;27;20495;-79
2023/08/02 10:59:45;;;;;;;4.13;2.30;;;;;;;;;;5143383;27;20491;-78
2023/08/02 11:02:16;;;;;;;6.17;2.20;;;;;;;;;;5141328;27;20908;-79
2023/08/02 11:04:47;;;;;;;6.20;2.73;;;;;;;;;;5137529;27;20454;-80
2023/08/02 11:07:16;;;;;;;11.13;4.17;;;;;;;;;;5138024;27;20462;-78
2023/08/02 11:09:44;;;;;;;12.97;6.67;;;;;;;;;;5128253;27;20442;-79
2023/08/02 11:12:12;;;;;;;12.77;9.13;;;;;;;;;;5134537;27;20457;-80
2023/08/02 11:14:40;;;;;;;9.83;5.10;;;;;;;;;;5140041;27;20465;-80
2023/08/02 11:17:09;;;;;;;9.70;3.80;;;;;;;;;;5139925;27;20545;-80
2023/08/02 11:19:38;;;;;;;10.67;5.93;;;;;;;;;;5140109;27;20835;-78
2023/08/02 11:22:11;;;;;;;6.43;3.40;;;;;;;;;;5136104;27;20496;-80
2023/08/02 11:24:53;;;;;;;11.37;5.80;;;;;;;;;;5138043;27;20835;-79
2023/08/02 11:27:22;;;;;;;6.17;3.60;;;;;;;;;;5138739;27;20450;-79
2023/08/02 11:30:00;;;;;;;11.10;4.93;;;;;;;;;;5112909;28;20451;-80
2023/08/02 11:32:30;;;;;;;8.13;3.30;;;;;;;;;;5119728;27;20442;-79
2023/08/02 11:34:58;;;;;;;10.63;5.00;;;;;;;;;;5115963;28;20477;-80
2023/08/02 11:37:26;;;;;;;11.03;4.83;;;;;;;;;;5120366;28;20462;-78
2023/08/02 11:39:58;;;;;;;10.33;4.30;;;;;;;;;;5098010;28;20452;-79
2023/08/02 11:42:26;;;;;;;8.90;4.90;;;;;;;;;;5103491;28;20489;-80
2023/08/02 11:44:56;;;;;;;7.77;4.93;;;;;;;;;;5094340;28;20468;-78
2023/08/02 11:47:23;;;;;;;10.37;5.37;;;;;;;;;;5096211;28;20505;-79
2023/08/02 11:49:55;;;;;;;10.97;5.87;;;;;;;;;;5095025;28;20486;-78
2023/08/02 11:52:30;;;;;;;12.10;5.60;;;;;;;;;;5096450;28;20750;-79
2023/08/02 11:54:58;;;;;;;10.10;6.23;;;;;;;;;;5100257;28;20752;-80
2023/08/02 11:57:27;;;;;;;14.73;6.57;;;;;;;;;;5097536;28;20768;-81
2023/08/02 11:59:59;;;;;;;7.67;4.33;;;;;;;;;;5097364;28;20550;-80
2023/08/02 12:02:32;;;;;;;12.67;6.00;;;;;;;;;;5102026;28;20583;-78
2023/08/02 12:05:05;;;;;;;9.47;6.30;;;;;;;;;;5092958;28;20464;-78
2023/08/02 12:07:33;;;;;;;6.53;3.60;;;;;;;;;;5101848;28;20547;-81
2023/08/02 12:10:06;;;;;;;8.23;5.47;;;;;;;;;;5092676;28;20470;-80
2023/08/02 12:12:35;;;;;;;12.40;6.97;;;;;;;;;;5099536;28;20457;-82
2023/08/02 12:15:11;;;;;;;16.93;9.23;;;;;;;;;;5093863;28;20470;-79
2023/08/02 12:17:40;;;;;;;8.20;5.00;;;;;;;;;;5102966;28;20448;-79
2023/08/02 12:20:29;;;;;;;6.70;4.37;;;;;;;;;;5094272;28;20496;-80
2023/08/02 12:22:57;;;;;;;7.27;4.53;;;;;;;;;;5103855;28;20625;-79
2023/08/02 12:25:25;;;;;;;10.20;4.80;;;;;;;;;;5093979;28;20492;-79
2023/08/02 12:28:13;;;;;;;11.23;5.60;;;;;;;;;;5100465;28;20462;-79
2023/08/02 12:30:41;;;;;;;7.20;3.70;;;;;;;;;;5094740;28;20455;-78
2023/08/02 12:33:09;;;;;;;4.17;3.10;;;;;;;;;;5100589;28;20444;-78
2023/08/02 12:35:45;;;;;;;10.17;4.40;;;;;;;;;;5096711;28;20459;-80
2023/08/02 12:38:13;;;;;;;7.10;3.43;;;;;;;;;;5095971;28;20547;-79
2023/08/02 12:40:40;;;;;;;9.73;4.30;;;;;;;;;;5100915;28;20453;-80
2023/08/02 12:43:08;;;;;;;4.60;3.17;;;;;;;;;;5099570;28;20479;-78
2023/08/02 12:45:36;;;;;;;7.47;3.30;;;;;;;;;;5096871;28;20495;-79
2023/08/02 12:48:08;;;;;;;4.60;2.97;;;;;;;;;;5098795;28;20458;-79
2023/08/02 12:50:47;;;;;;;8.10;3.30;;;;;;;;;;5103855;28;20443;-78
2023/08/02 12:53:17;;;;;;;4.80;2.80;;;;;;;;;;5105040;28;20482;-80
2023/08/02 12:55:46;;;;;;;8.43;4.10;;;;;;;;;;5104428;28;20435;-80
2023/08/02 12:58:13;;;;;;;7.03;3.33;;;;;;;;;;5105792;28;20459;-79
2023/08/02 13:00:42;;;;;;;4.10;2.40;;;;;;;;;;5106596;28;20451;-79
2023/08/02 13:03:13;;;;;;;7.87;3.30;;;;;;;;;;5105744;28;20498;-79
2023/08/02 13:05:43;;;;;;;3.20;2.60;;;;;;;;;;5109687;28;20452;-79
2023/08/02 13:08:12;;;;;;;5.37;3.97;;;;;;;;;;5095468;28;20555;-79
2023/08/02 13:10:44;;;;;;;9.67;4.83;;;;;;;;;;5101956;28;20494;-79
2023/08/02 13:13:11;;;;;;;8.87;3.20;;;;;;;;;;5097909;28;20495;-80
2023/08/02 13:15:40;;;;;;;7.80;3.57;;;;;;;;;;5093548;28;20452;-80
2023/08/02 13:18:08;;;;;;;8.50;4.37;;;;;;;;;;5087224;28;20463;-80
2023/08/02 13:20:35;;;;;;;7.00;4.23;;;;;;;;;;5084762;28;21129;-79
2023/08/02 13:23:04;;;;;;;16.13;7.10;;;;;;;;;;5083489;28;20550;-79
2023/08/02 13:25:35;;;;;;;5.97;2.93;;;;;;;;;;5104971;28;20473;-79
2023/08/02 13:31:28;;;;;;;10.97;5.07;;;;;;;;;;5065279;28;20495;-79
2023/08/02 13:34:06;;;;;;;9.07;5.60;;;;;;;;;;5081148;28;20495;-79
2023/08/02 13:45:50;;;;;;;6.03;3.80;;;;;;;;;;5051035;28;20190;-78
2023/08/02 13:48:21;;;;;;;5.80;3.20;;;;;;;;;;5092260;28;20485;-81
2023/08/02 13:50:51;;;;;;;7.67;3.87;;;;;;;;;;5101027;28;20446;-79
2023/08/02 13:53:20;;;;;;;6.23;4.13;;;;;;;;;;5089246;28;20443;-80
2023/08/02 13:55:51;;;;;;;6.70;3.73;;;;;;;;;;5092686;28;20880;-82
2023/08/02 13:58:27;;;;;;;8.97;6.43;;;;;;;;;;5096327;28;20547;-81
2023/08/02 14:01:11;;;;;;;6.20;3.30;;;;;;;;;;5096579;28;20558;-79
2023/08/02 14:03:47;;;;;;;5.87;3.57;;;;;;;;;;5087613;28;20579;-79
2023/08/02 14:06:18;;;;;;;5.83;2.90;;;;;;;;;;5091705;28;20463;-79
2023/08/02 14:08:52;;;;;;;4.40;2.60;;;;;;;;;;5102588;28;20467;-79
2023/08/02 14:11:25;;;;;;;5.93;2.93;;;;;;;;;;5095092;28;20449;-78
2023/08/02 14:13:55;;;;;;;7.53;3.70;;;;;;;;;;5082368;28;20496;-78
2023/08/02 14:16:35;;;;;;;5.20;2.93;;;;;;;;;;5100726;28;20463;-79
2023/08/02 14:19:15;;;;;;;5.33;4.70;;;;;;;;;;5085021;28;20457;-79
2023/08/02 14:21:50;;;;;;;3.73;2.60;;;;;;;;;;5094874;28;20562;-79
2023/08/02 14:24:25;;;;;;;8.60;4.10;;;;;;;;;;5101469;28;20503;-80
2023/08/02 14:27:07;;;;;;;7.37;4.23;;;;;;;;;;5081976;28;20551;-80
2023/08/02 14:29:43;;;;;;;5.90;3.13;;;;;;;;;;5100249;28;20463;-80
2023/08/02 14:32:18;;;;;;;11.83;6.10;;;;;;;;;;5099092;28;20469;-77
2023/08/02 14:34:48;;;;;;;6.60;3.53;;;;;;;;;;5081042;28;20460;-78
2023/08/02 14:37:21;;;;;;;8.60;4.43;;;;;;;;;;5088583;28;20529;-81
2023/08/02 14:39:53;;;;;;;12.97;6.00;;;;;;;;;;5088330;28;20524;-79
2023/08/02 14:42:24;;;;;;;5.87;3.50;;;;;;;;;;5096950;28;20486;-81
2023/08/02 14:44:53;;;;;;;9.30;4.37;;;;;;;;;;5083328;28;20464;-79
2023/08/02 14:47:22;;;;;;;6.13;4.10;;;;;;;;;;5092051;28;21050;-81
2023/08/02 14:49:50;;;;;;;4.60;3.30;;;;;;;;;;5105589;28;20477;-80
2023/08/02 14:52:18;;;;;;;6.20;3.77;;;;;;;;;;5102786;28;20448;-81
2023/08/02 14:54:46;;;;;;;5.87;3.87;;;;;;;;;;5103514;28;20483;-83
2023/08/02 14:57:15;;;;;;;4.93;3.10;;;;;;;;;;5104523;28;20455;-80
2023/08/02 14:59:42;;;;;;;16.27;6.53;;;;;;;;;;5108349;28;20443;-80
2023/08/02 15:02:14;;;;;;;8.20;5.07;;;;;;;;;;5104386;28;20459;-79
2023/08/02 15:04:48;;;;;;;7.80;4.03;;;;;;;;;;5105101;28;20564;-80
2023/08/02 15:07:16;;;;;;;6.93;3.50;;;;;;;;;;5104546;28;20444;-79
2023/08/02 15:09:46;;;;;;;5.83;3.00;;;;;;;;;;5106393;28;20447;-79
2023/08/02 15:12:13;;;;;;;4.40;2.83;;;;;;;;;;5104675;28;20471;-79
2023/08/02 15:14:41;;;;;;;5.70;3.27;;;;;;;;;;5101936;28;20901;-79
2023/08/02 15:17:08;;;;;;;5.23;3.53;;;;;;;;;;5102708;28;20507;-78
2023/08/02 15:19:36;;;;;;;7.57;3.97;;;;;;;;;;5103587;28;20443;-78
2023/08/02 15:22:06;;;;;;;6.93;3.43;;;;;;;;;;5102780;28;20456;-78